Latest Weather Observations for Kununurra Airport

IDW60801

Issued at 2:53 pm WST Sunday 24 October 2021 (issued every 10 minutes, with the page automatically refreshed every 10 minutes)

About weather observations | Map of weather stations | Latest weather observations for WA | Other Formats
Station Details ID: 002056 Name: KUNUNURRA AERO Lat: -15.78 Lon: 128.71 Height: 44.0 m
Data from the previous 72 hours. | See also: Recent months at Kununurra Airport
Date/Time
WST
Temp
°C
App
Temp
°C
Dew
Point
°C
Rel
Hum
%
Delta-T
°C
Wind Press
QNH
hPa
Press
MSL
hPa
Rain since
9am
mm
Dir  Spd
km/h
Gust
km/h
Spd
kts
Gust
kts
24/02:30pm 38.5 39.5 20.3 34 12.3 NE 15 24 8 13 1007.5 1007.2 0.0
24/02:00pm 38.3 40.6 20.6 35 12.0 NE 9 15 5 8 1007.8 1007.5 0.0
24/01:42pm 38.6 40.0 20.4 34 12.3 NNW 13 17 7 9 1007.9 1007.6 0.0
24/01:32pm 37.8 38.0 20.6 36 11.7 NNW 20 26 11 14 1008.1 1007.8 0.0
24/01:30pm 37.9 37.9 20.2 35 11.9 NNW 20 26 11 14 1008.0 1007.7 0.0
24/01:00pm 37.7 38.8 20.5 36 11.7 N 15 24 8 13 1008.5 1008.2 0.0
24/12:30pm 36.3 37.4 20.5 39 10.7 N 15 20 8 11 1009.1 1008.8 0.0
24/12:00pm 37.1 39.5 21.6 40 10.6 NW 11 20 6 11 1009.6 1009.3 0.0
24/11:30am 36.5 37.7 21.5 41 10.2 N 17 28 9 15 1010.1 1009.8 0.0
24/11:00am 35.5 36.5 21.0 42 9.8 N 17 28 9 15 1010.6 1010.3 0.0
24/10:30am 35.4 36.5 21.3 44 9.6 NW 17 24 9 13 1010.9 1010.6 0.0
24/10:00am 35.1 37.4 21.4 45 9.3 NNW 11 24 6 13 1011.4 1011.1 0.0
24/09:30am 33.8 35.2 21.9 49 8.1 NNW 17 30 9 16 1012.0 1011.7 0.0
24/09:00am 32.9 35.2 22.7 55 7.0 N 15 22 8 12 1012.5 1012.2 0.0
24/08:30am 31.6 34.9 23.2 61 5.8 NW 11 20 6 11 1013.0 1012.7 0.0
24/08:00am 31.2 34.6 23.3 63 5.5 NNW 11 17 6 9 1013.1 1012.8 0.0
24/07:30am 30.8 33.5 22.9 62 5.4 N 13 20 7 11 1013.2 1012.9 0.0
24/07:00am 30.2 35.1 24.6 72 3.9 NNE 7 11 4 6 1013.1 1012.8 0.0
24/06:30am 28.8 33.5 25.0 80 2.7 NNE 9 13 5 7 1012.8 1012.5 0.0
24/06:00am 27.5 32.4 25.3 88 1.5 N 9 11 5 6 1012.2 1011.9 0.0
24/05:30am 26.0 30.6 24.8 93 0.8 NNE 9 9 5 5 1011.8 1011.5 0.0
24/05:00am 25.4 29.7 24.2 93 0.8 NNE 9 13 5 7 1011.4 1011.1 0.0
24/04:30am 25.6 30.2 24.2 92 1.0 N 7 9 4 5 1010.9 1010.6 0.0
24/04:00am 25.5 29.8 24.3 93 0.8 N 9 11 5 6 1010.8 1010.5 0.0
24/03:30am 25.4 30.9 24.0 92 1.0 NNE 2 7 1 4 1010.4 1010.1 0.0
24/03:00am 25.5 30.5 23.9 91 1.1 NE 4 7 2 4 1010.4 1010.1 0.0
24/02:30am 25.9 30.7 24.1 90 1.2 N 6 7 3 4 1010.2 1009.9 0.0
24/02:00am 26.0 30.3 24.2 90 1.2 N 9 11 5 6 1010.1 1009.8 0.0
24/01:30am 25.9 29.6 23.9 89 1.4 NNE 11 13 6 7 1010.3 1010.0 0.0
24/01:00am 25.9 29.4 23.6 87 1.6 NNE 11 13 6 7 1010.0 1009.7 0.0
24/12:30am 26.5 30.5 23.8 85 1.9 NNW 9 11 5 6 1010.2 1009.9 0.0
24/12:00am 26.9 31.4 24.0 84 2.0 N 7 11 4 6 1010.3 1010.0 0.0
 
Date/Time
WST
Temp
°C
App
Temp
°C
Dew
Point
°C
Rel
Hum
%
Delta-T
°C
Wind Press
QNH
hPa
Press
MSL
hPa
Rain since
9am
mm
Dir  Spd
km/h
Gust
km/h
Spd
kts
Gust
kts
23/11:30pm 27.5 30.6 24.1 82 2.4 NNW 15 19 8 10 1010.4 1010.1 0.0
23/11:00pm 27.9 29.9 23.9 79 2.8 NE 20 28 11 15 1011.3 1011.0 0.0
23/10:30pm 27.2 30.0 23.0 78 2.9 NNE 13 15 7 8 1010.5 1010.2 0.0
23/10:00pm 27.2 29.7 22.4 75 3.2 NNE 13 15 7 8 1010.4 1010.1 0.0
23/09:30pm 27.6 29.9 22.1 72 3.7 N 13 15 7 8 1010.3 1010.0 0.0
23/09:00pm 28.8 31.5 22.1 67 4.5 N 11 20 6 11 1010.1 1009.8 0.0
23/08:30pm 29.2 30.6 21.9 64 4.9 N 17 20 9 11 1010.2 1009.9 0.0
23/08:00pm 29.8 31.3 22.0 63 5.3 N 17 19 9 10 1011.1 1010.8 0.0
23/07:30pm 30.3 32.7 22.2 62 5.5 ESE 13 17 7 9 1012.4 1012.1 0.0
23/07:00pm 30.4 33.0 22.0 60 5.7 NNE 11 17 6 9 1011.5 1011.2 0.0
23/06:30pm 31.5 32.0 21.9 56 6.5 N 22 32 12 17 1010.9 1010.6 0.0
23/06:00pm 32.4 31.9 22.2 55 7.0 N 28 37 15 20 1010.2 1009.9 0.0
23/05:30pm 33.9 33.9 21.7 49 8.3 N 24 35 13 19 1009.2 1008.9 0.0
23/05:00pm 35.1 34.3 21.7 45 9.2 N 28 35 15 19 1008.2 1007.9 0.0
23/04:30pm 35.5 37.2 23.1 48 8.6 N 19 24 10 13 1007.5 1007.2 0.0
23/04:00pm 35.6 37.2 22.9 48 8.8 NNE 19 26 10 14 1007.1 1006.8 0.0
23/03:30pm 36.3 37.6 21.7 42 10.0 NNE 17 28 9 15 1007.0 1006.7 0.0
23/03:01pm 35.7 34.1 17.4 33 11.8 E 22 32 12 17 1007.2 1006.9 0.0
23/03:00pm 36.7 35.2 17.8 32 12.3 E 22 32 12 17 1007.2 1006.9 0.0
23/02:34pm 36.7 34.4 21.3 40 10.5 N 35 48 19 26 1007.4 1007.1 0.0
23/02:30pm 37.1 34.6 20.8 38 11.1 N 35 54 19 29 1007.3 1007.0 0.0
23/02:15pm 38.2 38.6 20.9 36 11.8 N 20 48 11 26 1007.2 1006.9 0.0
23/02:00pm 40.3 41.3 19.4 30 14.1 NNW 13 24 7 13 1007.2 1006.9 0.0
23/01:30pm 40.1 40.4 18.7 29 14.2 NW 15 20 8 11 1007.5 1007.2 0.0
23/01:00pm 38.8 40.9 20.1 33 12.6 NW 9 20 5 11 1008.1 1007.8 0.0
23/12:30pm 38.5 39.2 18.9 32 13.0 N 13 30 7 16 1008.7 1008.4 0.0
23/12:00pm 38.4 39.1 19.7 33 12.6 NE 15 24 8 13 1009.2 1008.9 0.0
23/11:30am 38.4 39.7 20.2 34 12.3 N 13 20 7 11 1009.7 1009.4 0.0
23/11:00am 37.6 39.0 20.4 36 11.6 N 13 22 7 12 1010.3 1010.0 0.0
23/10:30am 36.5 38.5 21.5 41 10.2 N 13 22 7 12 1010.8 1010.5 0.0
23/10:00am 35.9 37.8 21.3 42 9.9 N 13 22 7 12 1011.2 1010.9 0.0
23/09:30am 35.0 36.9 22.0 46 8.9 N 15 20 8 11 1011.5 1011.2 0.0
23/09:00am 34.9 36.9 22.9 49 8.3 NNW 17 24 9 13 1011.9 1011.6 0.0
23/08:30am 33.6 36.0 23.6 56 7.0 N 17 22 9 12 1012.0 1011.7 0.0
23/08:00am 32.0 34.6 23.3 60 6.0 NNW 15 24 8 13 1012.1 1011.8 0.0
23/07:30am 31.0 34.3 23.9 66 4.9 NNW 13 20 7 11 1012.1 1011.8 0.0
23/07:00am 29.8 34.0 24.7 74 3.6 N 11 15 6 8 1012.1 1011.8 0.0
23/06:30am 28.1 33.0 24.7 82 2.4 NNE 7 9 4 5 1012.1 1011.8 0.0
23/06:00am 27.2 32.2 24.8 87 1.7 NW 7 9 4 5 1011.7 1011.4 0.0
23/05:30am 26.3 30.9 24.7 91 1.1 NNW 9 11 5 6 1011.3 1011.0 0.0
23/05:00am 25.7 30.0 24.3 92 1.0 N 9 11 5 6 1011.0 1010.7 0.0
23/04:30am 25.8 30.1 24.2 91 1.1 N 9 11 5 6 1010.7 1010.4 0.0
23/04:00am 25.9 30.0 24.5 92 1.0 N 11 13 6 7 1010.3 1010.0 0.0
23/03:30am 26.1 30.2 24.5 91 1.1 N 11 13 6 7 1010.0 1009.7 0.0
23/03:00am 26.2 29.9 24.6 91 1.1 NNE 13 15 7 8 1009.8 1009.5 0.0
23/02:30am 27.1 32.4 24.9 88 1.5 N 6 7 3 4 1009.6 1009.3 0.0
23/02:00am 27.1 32.0 24.7 87 1.7 NNW 7 11 4 6 1009.4 1009.1 0.0
23/01:30am 27.3 30.8 24.9 87 1.7 N 15 17 8 9 1009.5 1009.2 0.0
23/01:00am 27.3 31.5 25.3 89 1.4 N 13 17 7 9 1010.1 1009.8 0.0
23/12:30am 26.9 32.0 24.9 89 1.4 NNE 7 11 4 6 1010.4 1010.1 0.0
23/12:00am 27.1 32.5 25.1 89 1.4 NNE 6 15 3 8 1010.7 1010.4 0.0
 
Date/Time
WST
Temp
°C
App
Temp
°C
Dew
Point
°C
Rel
Hum
%
Delta-T
°C
Wind Press
QNH
hPa
Press
MSL
hPa
Rain since
9am
mm
Dir  Spd
km/h
Gust
km/h
Spd
kts
Gust
kts
22/11:30pm 27.1 31.0 24.9 88 1.5 N 13 15 7 8 1009.9 1009.6 0.0
22/11:00pm 27.1 31.6 24.6 86 1.7 N 9 11 5 6 1009.8 1009.5 0.0
22/10:30pm 27.4 31.5 24.5 84 2.0 NNE 11 13 6 7 1009.8 1009.5 0.0
22/10:00pm 27.8 31.3 24.2 81 2.5 N 13 15 7 8 1009.7 1009.4 0.0
22/09:30pm 28.4 32.2 24.0 77 3.0 NNE 11 15 6 8 1009.7 1009.4 0.0
22/09:00pm 29.2 32.1 23.9 73 3.7 N 15 19 8 10 1009.9 1009.6 0.0
22/08:30pm 29.4 32.8 23.4 70 4.1 NNE 11 15 6 8 1009.6 1009.3 0.0
22/08:00pm 30.1 32.8 22.8 65 5.0 N 13 15 7 8 1009.5 1009.2 0.0
22/07:30pm 30.7 33.3 22.6 62 5.5 N 13 17 7 9 1009.3 1009.0 0.0
22/07:00pm 31.3 33.3 22.9 61 5.8 N 17 22 9 12 1009.1 1008.8 0.0
22/06:30pm 31.9 33.7 23.2 60 6.0 N 19 24 10 13 1009.0 1008.7 0.0
22/06:00pm 32.7 34.5 23.3 57 6.5 N 19 30 10 16 1008.7 1008.4 0.0
22/05:30pm 33.5 34.3 23.2 54 7.1 N 24 33 13 18 1008.2 1007.9 0.0
22/05:00pm 34.9 34.8 22.9 49 8.3 N 28 41 15 22 1007.4 1007.1 0.0
22/04:30pm 36.3 35.8 22.8 45 9.4 NNE 30 37 16 20 1006.5 1006.2 0.0
22/04:00pm 36.9 38.3 22.6 43 9.9 NNE 19 28 10 15 1005.9 1005.6 0.0
22/03:30pm 38.8 39.8 21.0 35 12.2 N 17 22 9 12 1005.5 1005.2 0.0
22/03:00pm 39.4 39.6 20.1 32 13.1 NNE 19 28 10 15 1005.7 1005.4 0.0
22/02:30pm 40.1 40.4 19.7 30 13.7 NNE 17 24 9 13 1005.7 1005.4 0.0
22/02:00pm 39.9 40.4 20.1 32 13.4 NE 17 26 9 14 1005.9 1005.6 0.0
22/01:30pm 41.1 43.2 20.1 30 14.3 SE 9 19 5 10 1006.4 1006.1 0.0
22/01:00pm 41.1 40.0 14.4 21 16.9 ESE 13 28 7 15 1006.7 1006.4 0.0
22/12:30pm 40.8 38.8 14.9 22 16.4 ESE 19 24 10 13 1007.3 1007.0 0.0
22/12:00pm 39.9 38.1 15.5 24 15.6 SE 19 26 10 14 1007.8 1007.5 0.0
22/11:30am 39.6 37.9 14.6 23 15.7 ESE 17 24 9 13 1008.4 1008.1 0.0
22/11:00am 39.3 39.9 16.8 26 14.6 SSE 9 20 5 11 1008.9 1008.6 0.0
22/10:30am 36.3 41.2 25.2 53 7.9 NNE 9 15 5 8 1009.5 1009.2 0.0
22/10:00am 35.7 40.8 25.5 55 7.3 E 9 22 5 12 1010.0 1009.7 0.0
22/09:30am 35.0 41.0 26.3 60 6.3 NNE 7 15 4 8 1010.3 1010.0 0.0
22/09:00am 32.4 38.1 26.5 71 4.2 N 9 13 5 7 1010.6 1010.3 0.0
22/08:30am 32.3 38.6 26.8 73 4.0 NE 7 13 4 7 1010.6 1010.3 0.0
22/08:00am 31.3 37.7 26.6 76 3.4 N 6 9 3 5 1010.6 1010.3 0.0
22/07:30am 30.8 37.1 26.5 78 3.1 NNE 6 9 3 5 1010.5 1010.2 0.0
22/07:00am 30.7 37.8 27.1 81 2.6 NNE 4 9 2 5 1010.2 1009.9 0.0
22/06:57am 30.3 36.9 26.9 82 2.4 ENE 6 9 3 5 1010.2 1009.9 0.0
22/06:30am 29.5 36.7 26.7 85 2.0 ESE 2 6 1 3 1010.2 1009.9 0.0
22/06:13am 29.2 35.9 26.6 86 1.9 E 4 6 2 3 1010.0 1009.7 0.0
22/06:00am 29.0 35.0 26.4 86 1.9 ENE 7 11 4 6 1009.8 1009.5 0.0
22/05:30am 28.7 33.9 26.3 87 1.7 S 11 17 6 9 1009.5 1009.2 0.0
22/05:00am 28.6 35.3 26.6 89 1.4 E 4 9 2 5 1008.8 1008.5 0.0
22/04:43am 28.2 34.2 26.4 90 1.3 N 7 13 4 7 1008.4 1008.1 0.0
22/04:30am 28.2 33.7 26.2 89 1.4 N 9 13 5 7 1008.3 1008.0 0.0
22/04:00am 28.5 34.5 26.3 88 1.6 NE 7 9 4 5 1008.1 1007.8 0.0
22/03:53am 28.6 35.0 26.6 89 1.4 ENE 6 9 3 5 1008.0 1007.7 0.0
22/03:30am 28.3 34.3 26.3 89 1.4 NE 7 7 4 4 1007.6 1007.3 0.0
22/03:00am 28.2 34.1 26.2 89 1.4 N 7 11 4 6 1007.3 1007.0 0.0
22/02:30am 28.2 34.0 26.0 88 1.6 NNE 7 11 4 6 1007.3 1007.0 0.0
22/02:00am 28.1 33.7 25.7 87 1.7 NNE 7 11 4 6 1007.4 1007.1 0.0
22/01:30am 28.1 33.5 25.5 86 1.8 N 7 11 4 6 1007.5 1007.2 0.0
22/01:00am 28.1 33.9 25.1 84 2.1 NNE 4 6 2 3 1007.6 1007.3 0.0
22/12:30am 28.1 34.4 24.7 82 2.4 CALM 0 0 0 0 1007.8 1007.5 0.0
22/12:00am 28.3 32.4 24.5 80 2.7 N 11 13 6 7 1007.9 1007.6 0.0
 
Date/Time
WST
Temp
°C
App
Temp
°C
Dew
Point
°C
Rel
Hum
%
Delta-T
°C
Wind Press
QNH
hPa
Press
MSL
hPa
Rain since
9am
mm
Dir  Spd
km/h
Gust
km/h
Spd
kts
Gust
kts
21/11:30pm 28.6 32.7 23.9 75 3.3 NNE 9 11 5 6 1008.2 1007.9 0.0
21/11:00pm 29.5 34.0 23.9 72 3.9 N 7 11 4 6 1008.5 1008.2 0.0
21/10:30pm 29.5 33.7 24.1 72 3.8 NNE 9 11 5 6 1008.6 1008.3 0.0
21/10:00pm 29.8 33.2 24.0 71 4.0 NNE 13 17 7 9 1008.7 1008.4 0.0
21/09:30pm 30.4 32.9 23.8 68 4.6 NNE 17 22 9 12 1008.8 1008.5 0.0
21/09:00pm 31.1 33.3 24.0 66 5.0 NNE 19 24 10 13 1008.8 1008.5 0.0
21/08:30pm 31.2 34.7 24.8 69 4.5 NNE 15 20 8 11 1008.4 1008.1 0.0
21/08:00pm 31.7 35.8 24.6 66 5.0 NE 11 17 6 9 1007.8 1007.5 0.0
21/07:30pm 32.5 35.7 24.3 62 5.7 NNW 15 20 8 11 1007.1 1006.8 0.0
21/07:00pm 32.9 34.6 24.1 60 6.2 NNW 22 30 12 16 1006.9 1006.6 0.0
21/06:30pm 33.7 35.4 23.4 55 7.2 NNE 20 26 11 14 1006.9 1006.6 0.0
21/06:00pm 34.5 34.3 17.7 37 10.9 ENE 15 28 8 15 1006.3 1006.0 0.0
21/05:30pm 33.6 34.7 19.7 44 9.2 NNW 13 15 7 8 1005.1 1004.8 0.0
21/05:00pm 34.0 32.8 19.3 42 9.7 NNE 24 35 13 19 1004.7 1004.4 0.0
21/04:30pm 36.3 35.2 22.5 45 9.5 NE 32 43 17 23 1004.6 1004.3 0.0
21/04:20pm 38.7 39.5 21.8 37 11.6 NE 20 41 11 22 1004.4 1004.1 0.0
21/04:00pm 42.0 40.8 12.8 18 18.1 SSW 11 15 6 8 1003.5 1003.2 0.0
21/03:30pm 42.2 41.0 12.9 18 18.2 S 11 20 6 11 1003.2 1002.9 0.0
21/03:00pm 42.9 42.0 12.6 17 18.8 S 9 13 5 7 1003.4 1003.1 0.0

Other formats

Comma delimited format used in spreadsheet applications
http://www.bom.gov.au/fwo/IDW60801/IDW60801.94216.axf

JavaScript Object Notation format (JSON) in row-major order
http://www.bom.gov.au/fwo/IDW60801/IDW60801.94216.json

Data quality

Most of these data are generated automatically and are frequently updated. Quality checks on data are not normally performed. It is possible for incorrect values to appear. Refer to information at About Latest Weather Observations and please check the disclaimer before using these data.